sensor_id;sensor_type;location;lat;lon;timestamp;P1;durP1;ratioP1;P2;durP2;ratioP2
23388;SDS011;11867;51.198;11.966;2023-04-25T00:00:43;5.05;;;4.45;;
23388;SDS011;11867;51.198;11.966;2023-04-25T00:01:45;6.65;;;4.88;;
23388;SDS011;11867;51.198;11.966;2023-04-25T00:02:47;6.88;;;5.07;;
23388;SDS011;11867;51.198;11.966;2023-04-25T00:03:49;6.80;;;4.93;;
23388;SDS011;11867;51.198;11.966;2023-04-25T00:04:53;8.05;;;5.25;;
23388;SDS011;11867;51.198;11.966;2023-04-25T00:05:56;7.15;;;4.78;;
23388;SDS011;11867;51.198;11.966;2023-04-25T00:07:00;6.82;;;5.00;;
23388;SDS011;11867;51.198;11.966;2023-04-25T00:08:02;8.48;;;5.53;;
23388;SDS011;11867;51.198;11.966;2023-04-25T00:09:06;7.07;;;4.93;;
23388;SDS011;11867;51.198;11.966;2023-04-25T00:10:10;6.78;;;5.35;;
23388;SDS011;11867;51.198;11.966;2023-04-25T00:11:13;8.88;;;5.70;;
23388;SDS011;11867;51.198;11.966;2023-04-25T00:12:14;7.45;;;5.50;;
23388;SDS011;11867;51.198;11.966;2023-04-25T00:13:18;7.63;;;5.22;;
23388;SDS011;11867;51.198;11.966;2023-04-25T00:14:20;6.80;;;5.40;;
23388;SDS011;11867;51.198;11.966;2023-04-25T00:15:24;8.82;;;5.13;;
23388;SDS011;11867;51.198;11.966;2023-04-25T00:16:25;8.18;;;5.93;;
23388;SDS011;11867;51.198;11.966;2023-04-25T00:17:28;9.40;;;5.43;;
23388;SDS011;11867;51.198;11.966;2023-04-25T00:18:30;9.38;;;5.93;;
23388;SDS011;11867;51.198;11.966;2023-04-25T00:19:34;8.13;;;5.22;;
23388;SDS011;11867;51.198;11.966;2023-04-25T00:20:36;7.70;;;5.50;;
23388;SDS011;11867;51.198;11.966;2023-04-25T00:21:38;8.00;;;4.97;;
23388;SDS011;11867;51.198;11.966;2023-04-25T00:22:42;8.52;;;5.05;;
23388;SDS011;11867;51.198;11.966;2023-04-25T00:23:45;9.50;;;5.63;;
23388;SDS011;11867;51.198;11.966;2023-04-25T00:24:47;9.43;;;6.82;;
23388;SDS011;11867;51.198;11.966;2023-04-25T00:25:50;9.20;;;5.70;;
23388;SDS011;11867;51.198;11.966;2023-04-25T00:26:52;7.50;;;5.45;;
23388;SDS011;11867;51.198;11.966;2023-04-25T00:27:54;10.52;;;5.55;;
23388;SDS011;11867;51.198;11.966;2023-04-25T00:28:56;8.43;;;5.57;;
23388;SDS011;11867;51.198;11.966;2023-04-25T00:29:58;6.93;;;5.00;;
23388;SDS011;11867;51.198;11.966;2023-04-25T00:31:00;7.63;;;5.68;;
23388;SDS011;11867;51.198;11.966;2023-04-25T00:32:02;10.25;;;5.60;;
23388;SDS011;11867;51.198;11.966;2023-04-25T00:33:04;7.70;;;5.90;;
23388;SDS011;11867;51.198;11.966;2023-04-25T00:34:06;8.07;;;5.30;;
23388;SDS011;11867;51.198;11.966;2023-04-25T00:35:09;10.40;;;6.30;;
23388;SDS011;11867;51.198;11.966;2023-04-25T00:36:11;7.95;;;5.47;;
23388;SDS011;11867;51.198;11.966;2023-04-25T00:37:13;6.72;;;4.97;;
23388;SDS011;11867;51.198;11.966;2023-04-25T00:38:17;10.80;;;5.82;;
23388;SDS011;11867;51.198;11.966;2023-04-25T00:39:19;6.68;;;5.90;;
23388;SDS011;11867;51.198;11.966;2023-04-25T00:40:21;7.65;;;5.85;;
23388;SDS011;11867;51.198;11.966;2023-04-25T00:41:23;8.95;;;5.55;;
23388;SDS011;11867;51.198;11.966;2023-04-25T00:42:28;7.32;;;5.50;;
23388;SDS011;11867;51.198;11.966;2023-04-25T00:43:30;8.52;;;5.85;;
23388;SDS011;11867;51.198;11.966;2023-04-25T00:44:34;9.18;;;5.80;;
23388;SDS011;11867;51.198;11.966;2023-04-25T00:45:37;7.97;;;6.10;;
23388;SDS011;11867;51.198;11.966;2023-04-25T00:46:41;8.25;;;5.70;;
23388;SDS011;11867;51.198;11.966;2023-04-25T00:47:43;8.50;;;6.22;;
23388;SDS011;11867;51.198;11.966;2023-04-25T00:48:46;7.00;;;5.38;;
23388;SDS011;11867;51.198;11.966;2023-04-25T00:49:48;8.32;;;5.82;;
23388;SDS011;11867;51.198;11.966;2023-04-25T00:50:51;8.25;;;6.05;;
23388;SDS011;11867;51.198;11.966;2023-04-25T00:51:53;7.43;;;5.70;;
23388;SDS011;11867;51.198;11.966;2023-04-25T00:52:57;7.95;;;6.22;;
23388;SDS011;11867;51.198;11.966;2023-04-25T00:54:00;6.38;;;5.70;;
23388;SDS011;11867;51.198;11.966;2023-04-25T00:55:03;9.15;;;6.32;;
23388;SDS011;11867;51.198;11.966;2023-04-25T00:56:06;9.38;;;5.40;;
23388;SDS011;11867;51.198;11.966;2023-04-25T00:57:08;10.13;;;5.68;;
23388;SDS011;11867;51.198;11.966;2023-04-25T00:58:11;7.45;;;5.60;;
23388;SDS011;11867;51.198;11.966;2023-04-25T00:59:14;10.25;;;6.43;;
23388;SDS011;11867;51.198;11.966;2023-04-25T01:00:19;7.45;;;5.95;;
23388;SDS011;11867;51.198;11.966;2023-04-25T01:01:22;7.68;;;5.70;;
23388;SDS011;11867;51.198;11.966;2023-04-25T01:02:24;10.27;;;6.05;;
23388;SDS011;11867;51.198;11.966;2023-04-25T01:03:28;9.40;;;6.10;;
23388;SDS011;11867;51.198;11.966;2023-04-25T01:04:32;6.88;;;5.65;;
23388;SDS011;11867;51.198;11.966;2023-04-25T01:05:35;7.45;;;5.88;;
23388;SDS011;11867;51.198;11.966;2023-04-25T01:06:36;11.23;;;6.22;;
23388;SDS011;11867;51.198;11.966;2023-04-25T01:07:39;7.43;;;5.55;;
23388;SDS011;11867;51.198;11.966;2023-04-25T01:08:41;8.18;;;5.68;;
23388;SDS011;11867;51.198;11.966;2023-04-25T01:09:46;8.65;;;5.50;;
23388;SDS011;11867;51.198;11.966;2023-04-25T01:10:47;8.80;;;6.40;;
23388;SDS011;11867;51.198;11.966;2023-04-25T01:11:50;11.35;;;6.03;;
23388;SDS011;11867;51.198;11.966;2023-04-25T01:12:51;9.82;;;6.28;;
23388;SDS011;11867;51.198;11.966;2023-04-25T01:13:54;8.77;;;5.85;;
23388;SDS011;11867;51.198;11.966;2023-04-25T01:14:55;7.43;;;5.90;;
23388;SDS011;11867;51.198;11.966;2023-04-25T01:15:58;7.63;;;5.70;;
23388;SDS011;11867;51.198;11.966;2023-04-25T01:17:00;6.43;;;5.45;;
23388;SDS011;11867;51.198;11.966;2023-04-25T01:18:04;6.07;;;5.43;;
23388;SDS011;11867;51.198;11.966;2023-04-25T01:19:07;8.80;;;5.68;;
23388;SDS011;11867;51.198;11.966;2023-04-25T01:20:13;8.50;;;6.38;;
23388;SDS011;11867;51.198;11.966;2023-04-25T01:21:16;8.05;;;5.90;;
23388;SDS011;11867;51.198;11.966;2023-04-25T01:22:19;7.10;;;5.85;;
23388;SDS011;11867;51.198;11.966;2023-04-25T01:23:22;7.28;;;5.78;;
23388;SDS011;11867;51.198;11.966;2023-04-25T01:24:25;11.00;;;5.82;;
23388;SDS011;11867;51.198;11.966;2023-04-25T01:25:27;9.68;;;6.15;;
23388;SDS011;11867;51.198;11.966;2023-04-25T01:26:30;10.45;;;5.95;;
23388;SDS011;11867;51.198;11.966;2023-04-25T01:27:31;7.68;;;5.70;;
23388;SDS011;11867;51.198;11.966;2023-04-25T01:28:34;10.85;;;5.40;;
23388;SDS011;11867;51.198;11.966;2023-04-25T01:29:36;8.68;;;5.65;;
23388;SDS011;11867;51.198;11.966;2023-04-25T01:30:39;8.90;;;5.68;;
23388;SDS011;11867;51.198;11.966;2023-04-25T01:31:41;10.93;;;6.47;;
23388;SDS011;11867;51.198;11.966;2023-04-25T01:32:45;9.27;;;6.18;;
23388;SDS011;11867;51.198;11.966;2023-04-25T01:33:47;10.10;;;5.88;;
23388;SDS011;11867;51.198;11.966;2023-04-25T01:34:51;6.88;;;6.00;;
23388;SDS011;11867;51.198;11.966;2023-04-25T01:35:52;7.10;;;5.75;;
23388;SDS011;11867;51.198;11.966;2023-04-25T01:36:56;7.43;;;5.82;;
23388;SDS011;11867;51.198;11.966;2023-04-25T01:38:00;7.32;;;5.90;;
23388;SDS011;11867;51.198;11.966;2023-04-25T01:39:03;8.52;;;5.82;;
23388;SDS011;11867;51.198;11.966;2023-04-25T01:40:05;9.45;;;6.55;;
23388;SDS011;11867;51.198;11.966;2023-04-25T01:41:09;7.15;;;5.93;;
23388;SDS011;11867;51.198;11.966;2023-04-25T01:42:11;8.70;;;5.45;;
23388;SDS011;11867;51.198;11.966;2023-04-25T01:43:15;7.95;;;6.05;;
23388;SDS011;11867;51.198;11.966;2023-04-25T01:44:16;9.05;;;6.07;;
23388;SDS011;11867;51.198;11.966;2023-04-25T01:45:19;10.90;;;5.90;;
23388;SDS011;11867;51.198;11.966;2023-04-25T01:46:21;10.38;;;6.53;;
23388;SDS011;11867;51.198;11.966;2023-04-25T01:47:24;10.50;;;6.28;;
23388;SDS011;11867;51.198;11.966;2023-04-25T01:48:25;10.18;;;5.78;;
23388;SDS011;11867;51.198;11.966;2023-04-25T01:49:28;9.18;;;6.43;;
23388;SDS011;11867;51.198;11.966;2023-04-25T01:50:29;6.72;;;5.70;;
23388;SDS011;11867;51.198;11.966;2023-04-25T01:51:32;7.47;;;6.00;;
23388;SDS011;11867;51.198;11.966;2023-04-25T01:52:35;7.18;;;6.40;;
23388;SDS011;11867;51.198;11.966;2023-04-25T01:53:38;9.95;;;6.00;;
23388;SDS011;11867;51.198;11.966;2023-04-25T01:54:40;7.93;;;6.30;;
23388;SDS011;11867;51.198;11.966;2023-04-25T01:55:45;10.35;;;7.18;;
23388;SDS011;11867;51.198;11.966;2023-04-25T01:56:49;7.50;;;6.03;;
23388;SDS011;11867;51.198;11.966;2023-04-25T01:57:52;8.45;;;6.55;;
23388;SDS011;11867;51.198;11.966;2023-04-25T01:58:54;9.70;;;6.72;;
23388;SDS011;11867;51.198;11.966;2023-04-25T01:59:58;6.90;;;6.03;;
23388;SDS011;11867;51.198;11.966;2023-04-25T02:01:01;9.13;;;7.43;;
23388;SDS011;11867;51.198;11.966;2023-04-25T02:02:03;9.43;;;6.95;;
23388;SDS011;11867;51.198;11.966;2023-04-25T02:03:06;9.77;;;7.07;;
23388;SDS011;11867;51.198;11.966;2023-04-25T02:04:09;9.02;;;6.78;;
23388;SDS011;11867;51.198;11.966;2023-04-25T02:05:10;9.85;;;6.43;;
23388;SDS011;11867;51.198;11.966;2023-04-25T02:06:13;9.70;;;7.00;;
23388;SDS011;11867;51.198;11.966;2023-04-25T02:07:14;11.88;;;7.25;;
23388;SDS011;11867;51.198;11.966;2023-04-25T02:08:19;9.95;;;6.30;;
23388;SDS011;11867;51.198;11.966;2023-04-25T02:09:20;8.40;;;6.65;;
23388;SDS011;11867;51.198;11.966;2023-04-25T02:10:23;9.35;;;6.85;;
23388;SDS011;11867;51.198;11.966;2023-04-25T02:11:24;8.48;;;6.55;;
23388;SDS011;11867;51.198;11.966;2023-04-25T02:12:26;8.82;;;6.22;;
23388;SDS011;11867;51.198;11.966;2023-04-25T02:13:28;9.93;;;6.63;;
23388;SDS011;11867;51.198;11.966;2023-04-25T02:14:31;11.00;;;7.43;;
23388;SDS011;11867;51.198;11.966;2023-04-25T02:15:32;8.23;;;6.95;;
23388;SDS011;11867;51.198;11.966;2023-04-25T02:16:35;11.77;;;7.35;;
23388;SDS011;11867;51.198;11.966;2023-04-25T02:17:37;11.43;;;6.95;;
23388;SDS011;11867;51.198;11.966;2023-04-25T02:18:40;8.73;;;7.30;;
23388;SDS011;11867;51.198;11.966;2023-04-25T02:19:41;9.77;;;7.57;;
23388;SDS011;11867;51.198;11.966;2023-04-25T02:20:44;10.55;;;7.13;;
23388;SDS011;11867;51.198;11.966;2023-04-25T02:21:46;9.70;;;7.30;;
23388;SDS011;11867;51.198;11.966;2023-04-25T02:22:48;11.35;;;7.82;;
23388;SDS011;11867;51.198;11.966;2023-04-25T02:23:51;11.38;;;8.18;;
23388;SDS011;11867;51.198;11.966;2023-04-25T02:24:54;13.02;;;8.00;;
23388;SDS011;11867;51.198;11.966;2023-04-25T02:25:57;10.48;;;7.03;;
23388;SDS011;11867;51.198;11.966;2023-04-25T02:26:59;8.85;;;7.25;;
23388;SDS011;11867;51.198;11.966;2023-04-25T02:28:01;10.93;;;7.55;;
23388;SDS011;11867;51.198;11.966;2023-04-25T02:29:04;10.23;;;7.38;;
23388;SDS011;11867;51.198;11.966;2023-04-25T02:30:06;9.50;;;7.22;;
23388;SDS011;11867;51.198;11.966;2023-04-25T02:31:09;9.05;;;7.07;;
23388;SDS011;11867;51.198;11.966;2023-04-25T02:32:11;9.25;;;6.68;;
23388;SDS011;11867;51.198;11.966;2023-04-25T02:33:13;9.80;;;7.18;;
23388;SDS011;11867;51.198;11.966;2023-04-25T02:34:18;13.23;;;7.50;;
23388;SDS011;11867;51.198;11.966;2023-04-25T02:35:19;10.30;;;7.28;;
23388;SDS011;11867;51.198;11.966;2023-04-25T02:36:22;8.95;;;6.90;;
23388;SDS011;11867;51.198;11.966;2023-04-25T02:37:23;10.38;;;7.57;;
23388;SDS011;11867;51.198;11.966;2023-04-25T02:38:26;10.80;;;7.05;;
23388;SDS011;11867;51.198;11.966;2023-04-25T02:39:30;11.77;;;7.28;;
23388;SDS011;11867;51.198;11.966;2023-04-25T02:40:31;8.95;;;7.00;;
23388;SDS011;11867;51.198;11.966;2023-04-25T02:41:34;11.30;;;7.20;;
23388;SDS011;11867;51.198;11.966;2023-04-25T02:42:35;9.98;;;7.68;;
23388;SDS011;11867;51.198;11.966;2023-04-25T02:43:38;9.50;;;6.80;;
23388;SDS011;11867;51.198;11.966;2023-04-25T02:44:39;9.65;;;7.32;;
23388;SDS011;11867;51.198;11.966;2023-04-25T02:45:42;10.90;;;7.78;;
23388;SDS011;11867;51.198;11.966;2023-04-25T02:46:43;10.95;;;6.82;;
23388;SDS011;11867;51.198;11.966;2023-04-25T02:47:46;8.50;;;7.00;;
23388;SDS011;11867;51.198;11.966;2023-04-25T02:48:47;8.88;;;7.20;;
23388;SDS011;11867;51.198;11.966;2023-04-25T02:49:50;9.85;;;7.10;;
23388;SDS011;11867;51.198;11.966;2023-04-25T02:50:51;8.77;;;7.07;;
23388;SDS011;11867;51.198;11.966;2023-04-25T02:51:54;10.50;;;7.28;;
23388;SDS011;11867;51.198;11.966;2023-04-25T02:52:55;9.00;;;6.80;;
23388;SDS011;11867;51.198;11.966;2023-04-25T02:53:58;11.30;;;7.40;;
23388;SDS011;11867;51.198;11.966;2023-04-25T02:55:01;11.88;;;7.03;;
23388;SDS011;11867;51.198;11.966;2023-04-25T02:56:03;10.02;;;7.32;;
23388;SDS011;11867;51.198;11.966;2023-04-25T02:57:05;10.68;;;6.80;;
23388;SDS011;11867;51.198;11.966;2023-04-25T02:58:08;10.05;;;7.10;;
23388;SDS011;11867;51.198;11.966;2023-04-25T02:59:10;8.48;;;6.55;;
23388;SDS011;11867;51.198;11.966;2023-04-25T03:00:12;7.88;;;6.47;;
23388;SDS011;11867;51.198;11.966;2023-04-25T03:01:15;10.88;;;6.72;;
23388;SDS011;11867;51.198;11.966;2023-04-25T03:02:18;8.63;;;6.53;;
23388;SDS011;11867;51.198;11.966;2023-04-25T03:03:19;7.60;;;6.78;;
23388;SDS011;11867;51.198;11.966;2023-04-25T03:04:23;9.73;;;7.15;;
23388;SDS011;11867;51.198;11.966;2023-04-25T03:05:25;10.85;;;7.10;;
23388;SDS011;11867;51.198;11.966;2023-04-25T03:06:27;9.25;;;7.05;;
23388;SDS011;11867;51.198;11.966;2023-04-25T03:07:29;9.48;;;6.80;;
23388;SDS011;11867;51.198;11.966;2023-04-25T03:08:31;7.72;;;6.75;;
23388;SDS011;11867;51.198;11.966;2023-04-25T03:09:33;13.65;;;6.70;;
23388;SDS011;11867;51.198;11.966;2023-04-25T03:10:38;9.50;;;7.00;;
23388;SDS011;11867;51.198;11.966;2023-04-25T03:11:39;10.43;;;6.47;;
23388;SDS011;11867;51.198;11.966;2023-04-25T03:12:42;10.50;;;6.93;;
23388;SDS011;11867;51.198;11.966;2023-04-25T03:13:43;9.77;;;6.65;;
23388;SDS011;11867;51.198;11.966;2023-04-25T03:14:46;8.48;;;6.68;;
23388;SDS011;11867;51.198;11.966;2023-04-25T03:15:47;11.88;;;6.85;;
23388;SDS011;11867;51.198;11.966;2023-04-25T03:16:49;12.68;;;7.10;;
23388;SDS011;11867;51.198;11.966;2023-04-25T03:17:51;10.07;;;7.25;;
23388;SDS011;11867;51.198;11.966;2023-04-25T03:18:54;11.02;;;7.13;;
23388;SDS011;11867;51.198;11.966;2023-04-25T03:19:57;8.98;;;6.55;;
23388;SDS011;11867;51.198;11.966;2023-04-25T03:20:59;9.70;;;6.57;;
23388;SDS011;11867;51.198;11.966;2023-04-25T03:22:01;13.25;;;7.15;;
23388;SDS011;11867;51.198;11.966;2023-04-25T03:23:03;9.68;;;6.70;;
23388;SDS011;11867;51.198;11.966;2023-04-25T03:24:05;8.52;;;6.13;;
23388;SDS011;11867;51.198;11.966;2023-04-25T03:25:08;16.20;;;7.72;;
23388;SDS011;11867;51.198;11.966;2023-04-25T03:26:11;10.55;;;6.57;;
23388;SDS011;11867;51.198;11.966;2023-04-25T03:27:13;9.85;;;6.68;;
23388;SDS011;11867;51.198;11.966;2023-04-25T03:28:15;10.35;;;6.80;;
23388;SDS011;11867;51.198;11.966;2023-04-25T03:29:17;9.95;;;6.75;;
23388;SDS011;11867;51.198;11.966;2023-04-25T03:30:19;9.30;;;7.20;;
23388;SDS011;11867;51.198;11.966;2023-04-25T03:31:21;8.90;;;6.55;;
23388;SDS011;11867;51.198;11.966;2023-04-25T03:32:24;7.22;;;6.32;;
23388;SDS011;11867;51.198;11.966;2023-04-25T03:33:27;8.50;;;6.53;;
23388;SDS011;11867;51.198;11.966;2023-04-25T03:34:28;10.63;;;6.68;;
23388;SDS011;11867;51.198;11.966;2023-04-25T03:35:31;8.98;;;6.70;;
23388;SDS011;11867;51.198;11.966;2023-04-25T03:36:32;11.77;;;6.63;;
23388;SDS011;11867;51.198;11.966;2023-04-25T03:37:35;10.52;;;6.85;;
23388;SDS011;11867;51.198;11.966;2023-04-25T03:38:36;10.60;;;7.00;;
23388;SDS011;11867;51.198;11.966;2023-04-25T03:39:39;10.02;;;6.70;;
23388;SDS011;11867;51.198;11.966;2023-04-25T03:40:40;11.73;;;7.25;;
23388;SDS011;11867;51.198;11.966;2023-04-25T03:41:44;9.50;;;6.88;;
23388;SDS011;11867;51.198;11.966;2023-04-25T03:42:46;8.55;;;6.95;;
23388;SDS011;11867;51.198;11.966;2023-04-25T03:43:48;9.18;;;6.93;;
23388;SDS011;11867;51.198;11.966;2023-04-25T03:44:51;12.40;;;7.00;;
23388;SDS011;11867;51.198;11.966;2023-04-25T03:45:53;10.50;;;7.13;;
23388;SDS011;11867;51.198;11.966;2023-04-25T03:46:56;10.68;;;6.63;;
23388;SDS011;11867;51.198;11.966;2023-04-25T03:47:58;9.23;;;6.93;;
23388;SDS011;11867;51.198;11.966;2023-04-25T03:49:00;12.15;;;7.10;;
23388;SDS011;11867;51.198;11.966;2023-04-25T03:50:03;9.50;;;6.60;;
23388;SDS011;11867;51.198;11.966;2023-04-25T03:51:05;9.35;;;6.97;;
23388;SDS011;11867;51.198;11.966;2023-04-25T03:52:07;13.50;;;6.95;;
23388;SDS011;11867;51.198;11.966;2023-04-25T03:53:09;10.60;;;6.50;;
23388;SDS011;11867;51.198;11.966;2023-04-25T03:54:12;8.55;;;6.60;;
23388;SDS011;11867;51.198;11.966;2023-04-25T03:55:13;9.27;;;6.63;;
23388;SDS011;11867;51.198;11.966;2023-04-25T03:56:16;9.68;;;6.30;;
23388;SDS011;11867;51.198;11.966;2023-04-25T03:57:18;12.77;;;6.45;;
23388;SDS011;11867;51.198;11.966;2023-04-25T03:58:21;10.77;;;6.47;;
23388;SDS011;11867;51.198;11.966;2023-04-25T03:59:24;13.43;;;6.63;;
23388;SDS011;11867;51.198;11.966;2023-04-25T04:00:27;10.27;;;6.93;;
23388;SDS011;11867;51.198;11.966;2023-04-25T04:01:28;9.85;;;6.57;;
23388;SDS011;11867;51.198;11.966;2023-04-25T04:02:31;9.85;;;6.85;;
23388;SDS011;11867;51.198;11.966;2023-04-25T04:03:34;9.45;;;6.70;;
23388;SDS011;11867;51.198;11.966;2023-04-25T04:04:36;9.02;;;6.63;;
23388;SDS011;11867;51.198;11.966;2023-04-25T04:05:39;9.73;;;7.38;;
23388;SDS011;11867;51.198;11.966;2023-04-25T04:06:41;9.88;;;6.85;;
23388;SDS011;11867;51.198;11.966;2023-04-25T04:07:44;7.78;;;6.70;;
23388;SDS011;11867;51.198;11.966;2023-04-25T04:08:46;10.50;;;7.05;;
23388;SDS011;11867;51.198;11.966;2023-04-25T04:09:48;10.20;;;7.10;;
23388;SDS011;11867;51.198;11.966;2023-04-25T04:10:50;10.02;;;6.90;;
23388;SDS011;11867;51.198;11.966;2023-04-25T04:11:52;12.20;;;6.68;;
23388;SDS011;11867;51.198;11.966;2023-04-25T04:12:55;8.13;;;6.43;;
23388;SDS011;11867;51.198;11.966;2023-04-25T04:13:57;11.10;;;6.45;;
23388;SDS011;11867;51.198;11.966;2023-04-25T04:14:59;12.30;;;7.22;;
23388;SDS011;11867;51.198;11.966;2023-04-25T04:16:01;9.82;;;7.05;;
23388;SDS011;11867;51.198;11.966;2023-04-25T04:17:05;9.35;;;6.57;;
23388;SDS011;11867;51.198;11.966;2023-04-25T04:18:08;11.30;;;7.28;;
23388;SDS011;11867;51.198;11.966;2023-04-25T04:19:09;10.77;;;7.40;;
23388;SDS011;11867;51.198;11.966;2023-04-25T04:20:12;12.85;;;7.32;;
23388;SDS011;11867;51.198;11.966;2023-04-25T04:21:13;11.18;;;7.13;;
23388;SDS011;11867;51.198;11.966;2023-04-25T04:22:16;10.30;;;6.97;;
23388;SDS011;11867;51.198;11.966;2023-04-25T04:23:18;10.95;;;6.97;;
23388;SDS011;11867;51.198;11.966;2023-04-25T04:24:21;12.90;;;7.97;;
23388;SDS011;11867;51.198;11.966;2023-04-25T04:25:23;11.75;;;7.88;;
23388;SDS011;11867;51.198;11.966;2023-04-25T04:26:26;9.60;;;7.03;;
23388;SDS011;11867;51.198;11.966;2023-04-25T04:27:27;10.50;;;7.80;;
23388;SDS011;11867;51.198;11.966;2023-04-25T04:28:31;9.05;;;7.00;;
23388;SDS011;11867;51.198;11.966;2023-04-25T04:29:33;15.15;;;7.47;;
23388;SDS011;11867;51.198;11.966;2023-04-25T04:30:36;12.25;;;8.32;;
23388;SDS011;11867;51.198;11.966;2023-04-25T04:31:38;11.57;;;7.88;;
23388;SDS011;11867;51.198;11.966;2023-04-25T04:32:41;11.20;;;7.28;;
23388;SDS011;11867;51.198;11.966;2023-04-25T04:33:43;11.32;;;7.60;;
23388;SDS011;11867;51.198;11.966;2023-04-25T04:34:45;11.77;;;7.32;;
23388;SDS011;11867;51.198;11.966;2023-04-25T04:35:49;13.77;;;7.88;;
23388;SDS011;11867;51.198;11.966;2023-04-25T04:36:53;11.43;;;7.80;;
23388;SDS011;11867;51.198;11.966;2023-04-25T04:37:55;12.30;;;8.30;;
23388;SDS011;11867;51.198;11.966;2023-04-25T04:38:57;14.52;;;8.20;;
23388;SDS011;11867;51.198;11.966;2023-04-25T04:39:59;14.52;;;8.68;;
23388;SDS011;11867;51.198;11.966;2023-04-25T04:41:02;14.27;;;7.78;;
23388;SDS011;11867;51.198;11.966;2023-04-25T04:42:04;11.27;;;7.65;;
23388;SDS011;11867;51.198;11.966;2023-04-25T04:43:07;10.02;;;7.78;;
23388;SDS011;11867;51.198;11.966;2023-04-25T04:44:11;10.25;;;7.40;;
23388;SDS011;11867;51.198;11.966;2023-04-25T04:45:15;12.35;;;7.70;;
23388;SDS011;11867;51.198;11.966;2023-04-25T04:46:17;13.82;;;7.00;;
23388;SDS011;11867;51.198;11.966;2023-04-25T04:47:19;9.85;;;6.55;;
23388;SDS011;11867;51.198;11.966;2023-04-25T04:48:21;8.77;;;5.88;;
23388;SDS011;11867;51.198;11.966;2023-04-25T04:49:24;10.75;;;6.05;;
23388;SDS011;11867;51.198;11.966;2023-04-25T04:50:25;10.43;;;5.85;;
23388;SDS011;11867;51.198;11.966;2023-04-25T04:51:28;10.90;;;6.82;;
23388;SDS011;11867;51.198;11.966;2023-04-25T04:52:31;9.63;;;6.10;;
23388;SDS011;11867;51.198;11.966;2023-04-25T04:53:33;10.65;;;5.88;;
23388;SDS011;11867;51.198;11.966;2023-04-25T04:54:35;11.52;;;6.47;;
23388;SDS011;11867;51.198;11.966;2023-04-25T04:55:38;10.25;;;6.65;;
23388;SDS011;11867;51.198;11.966;2023-04-25T04:56:40;11.02;;;6.35;;
23388;SDS011;11867;51.198;11.966;2023-04-25T04:57:43;11.60;;;6.35;;
23388;SDS011;11867;51.198;11.966;2023-04-25T04:58:44;11.48;;;6.57;;
23388;SDS011;11867;51.198;11.966;2023-04-25T04:59:48;9.98;;;6.30;;
23388;SDS011;11867;51.198;11.966;2023-04-25T05:00:51;10.55;;;6.25;;
23388;SDS011;11867;51.198;11.966;2023-04-25T05:01:53;8.60;;;5.90;;
23388;SDS011;11867;51.198;11.966;2023-04-25T05:02:55;11.27;;;6.90;;
23388;SDS011;11867;51.198;11.966;2023-04-25T05:03:58;8.05;;;6.20;;
23388;SDS011;11867;51.198;11.966;2023-04-25T05:05:02;9.07;;;6.90;;
23388;SDS011;11867;51.198;11.966;2023-04-25T05:06:05;10.05;;;6.13;;
23388;SDS011;11867;51.198;11.966;2023-04-25T05:07:07;13.73;;;6.57;;
23388;SDS011;11867;51.198;11.966;2023-04-25T05:08:09;10.82;;;6.82;;
23388;SDS011;11867;51.198;11.966;2023-04-25T05:09:11;13.07;;;7.22;;
23388;SDS011;11867;51.198;11.966;2023-04-25T05:10:13;8.38;;;6.63;;
23388;SDS011;11867;51.198;11.966;2023-04-25T05:11:15;14.63;;;6.80;;
23388;SDS011;11867;51.198;11.966;2023-04-25T05:12:17;11.18;;;6.82;;
23388;SDS011;11867;51.198;11.966;2023-04-25T05:13:19;10.60;;;7.15;;
23388;SDS011;11867;51.198;11.966;2023-04-25T05:14:21;11.77;;;7.72;;
23388;SDS011;11867;51.198;11.966;2023-04-25T05:15:25;12.77;;;7.40;;
23388;SDS011;11867;51.198;11.966;2023-04-25T05:16:28;9.25;;;6.85;;
23388;SDS011;11867;51.198;11.966;2023-04-25T05:17:29;11.30;;;7.53;;
23388;SDS011;11867;51.198;11.966;2023-04-25T05:18:32;8.20;;;6.97;;
23388;SDS011;11867;51.198;11.966;2023-04-25T05:19:33;9.60;;;7.10;;
23388;SDS011;11867;51.198;11.966;2023-04-25T05:20:36;12.45;;;7.18;;
23388;SDS011;11867;51.198;11.966;2023-04-25T05:21:38;14.70;;;7.28;;
23388;SDS011;11867;51.198;11.966;2023-04-25T05:22:40;11.02;;;6.82;;
23388;SDS011;11867;51.198;11.966;2023-04-25T05:23:42;10.43;;;7.25;;
23388;SDS011;11867;51.198;11.966;2023-04-25T05:24:45;9.70;;;7.00;;
23388;SDS011;11867;51.198;11.966;2023-04-25T05:25:47;9.10;;;6.45;;
23388;SDS011;11867;51.198;11.966;2023-04-25T05:26:49;11.05;;;7.35;;
23388;SDS011;11867;51.198;11.966;2023-04-25T05:27:51;14.75;;;6.72;;
23388;SDS011;11867;51.198;11.966;2023-04-25T05:28:53;10.07;;;6.65;;
23388;SDS011;11867;51.198;11.966;2023-04-25T05:29:55;10.05;;;6.90;;
23388;SDS011;11867;51.198;11.966;2023-04-25T05:30:59;8.35;;;6.40;;
23388;SDS011;11867;51.198;11.966;2023-04-25T05:32:01;11.57;;;6.80;;
23388;SDS011;11867;51.198;11.966;2023-04-25T05:33:04;10.52;;;7.22;;
23388;SDS011;11867;51.198;11.966;2023-04-25T05:34:05;10.13;;;6.97;;
23388;SDS011;11867;51.198;11.966;2023-04-25T05:35:08;9.73;;;6.75;;
23388;SDS011;11867;51.198;11.966;2023-04-25T05:36:10;11.52;;;6.75;;
23388;SDS011;11867;51.198;11.966;2023-04-25T05:37:12;11.15;;;6.35;;
23388;SDS011;11867;51.198;11.966;2023-04-25T05:38:14;8.40;;;5.97;;
23388;SDS011;11867;51.198;11.966;2023-04-25T05:39:16;10.32;;;7.20;;
23388;SDS011;11867;51.198;11.966;2023-04-25T05:40:18;10.93;;;6.90;;
23388;SDS011;11867;51.198;11.966;2023-04-25T05:41:21;9.70;;;6.88;;
23388;SDS011;11867;51.198;11.966;2023-04-25T05:42:22;13.60;;;6.90;;
23388;SDS011;11867;51.198;11.966;2023-04-25T05:43:25;11.75;;;6.60;;
23388;SDS011;11867;51.198;11.966;2023-04-25T05:44:26;8.43;;;6.72;;
23388;SDS011;11867;51.198;11.966;2023-04-25T05:45:30;13.30;;;6.85;;
23388;SDS011;11867;51.198;11.966;2023-04-25T05:46:32;10.95;;;6.40;;
23388;SDS011;11867;51.198;11.966;2023-04-25T05:47:35;12.90;;;7.85;;
23388;SDS011;11867;51.198;11.966;2023-04-25T05:48:37;9.43;;;6.63;;
23388;SDS011;11867;51.198;11.966;2023-04-25T05:49:39;11.65;;;6.93;;
23388;SDS011;11867;51.198;11.966;2023-04-25T05:50:41;13.02;;;6.47;;
23388;SDS011;11867;51.198;11.966;2023-04-25T05:51:44;12.23;;;6.05;;
23388;SDS011;11867;51.198;11.966;2023-04-25T05:52:46;8.70;;;6.65;;
23388;SDS011;11867;51.198;11.966;2023-04-25T05:53:49;9.60;;;6.97;;
23388;SDS011;11867;51.198;11.966;2023-04-25T05:54:51;10.32;;;6.28;;
23388;SDS011;11867;51.198;11.966;2023-04-25T05:55:53;9.48;;;6.32;;
23388;SDS011;11867;51.198;11.966;2023-04-25T05:56:55;12.70;;;7.13;;
23388;SDS011;11867;51.198;11.966;2023-04-25T05:57:58;9.93;;;6.32;;
23388;SDS011;11867;51.198;11.966;2023-04-25T05:59:00;11.02;;;6.93;;
23388;SDS011;11867;51.198;11.966;2023-04-25T06:00:02;9.75;;;6.28;;
23388;SDS011;11867;51.198;11.966;2023-04-25T06:01:05;10.02;;;6.57;;
23388;SDS011;11867;51.198;11.966;2023-04-25T06:02:09;10.38;;;6.40;;
23388;SDS011;11867;51.198;11.966;2023-04-25T06:03:10;10.57;;;6.60;;
23388;SDS011;11867;51.198;11.966;2023-04-25T06:04:19;10.38;;;6.78;;
23388;SDS011;11867;51.198;11.966;2023-04-25T06:05:21;11.57;;;6.38;;
23388;SDS011;11867;51.198;11.966;2023-04-25T06:06:24;11.05;;;6.47;;
23388;SDS011;11867;51.198;11.966;2023-04-25T06:07:28;11.55;;;7.40;;
23388;SDS011;11867;51.198;11.966;2023-04-25T06:08:31;11.57;;;6.97;;